Time;durP1;ratioP1;P1;durP2;ratioP2;P2;SDS_P1;SDS_P2;PMS_P1;PMS_P2;Temp;Humidity;BMP_temperature;BMP_pressure;BME280_temperature;BME280_humidity;BME280_pressure;Samples;Min_cycle;Max_cycle;Signal;HPM_P1;HPM_P2
2022/07/14 00:01:09;;;;;;;11.35;3.90;;;;;;;17.51;81.67;101978.69;5111845;28;20350;-58
2022/07/14 00:03:35;;;;;;;10.87;4.30;;;;;;;17.47;81.79;101974.41;5111649;28;20027;-59
2022/07/14 00:06:00;;;;;;;12.27;3.92;;;;;;;17.45;81.81;101963.84;5111767;28;20334;-57
2022/07/14 00:08:25;;;;;;;10.90;4.30;;;;;;;17.36;82.17;101983.44;5111680;28;20039;-57
2022/07/14 00:10:51;;;;;;;10.48;3.97;;;;;;;17.39;82.32;101990.44;5111257;28;20057;-58
2022/07/14 00:13:16;;;;;;;8.50;3.80;;;;;;;17.38;81.72;101989.56;5111370;28;20034;-57
2022/07/14 00:15:42;;;;;;;11.02;3.70;;;;;;;17.33;81.95;101972.06;5111656;28;20043;-59
2022/07/14 00:18:07;;;;;;;15.07;4.00;;;;;;;17.33;82.18;101956.19;5111766;28;20032;-58
2022/07/14 00:20:32;;;;;;;10.45;3.60;;;;;;;17.31;82.31;101958.03;5111932;28;20453;-58
2022/07/14 00:22:58;;;;;;;9.05;3.17;;;;;;;17.18;82.85;101952.13;5111346;28;20170;-58
2022/07/14 00:25:24;;;;;;;12.85;3.88;;;;;;;16.91;84.12;101940.41;5111760;28;20042;-57
2022/07/14 00:27:50;;;;;;;11.90;3.50;;;;;;;16.81;84.66;101946.78;5111609;28;20122;-58
2022/07/14 00:30:15;;;;;;;13.88;3.70;;;;;;;16.80;85.13;101945.03;5111428;28;20066;-58
2022/07/14 00:32:40;;;;;;;12.57;4.30;;;;;;;16.82;85.12;101959.09;5111549;28;20459;-58
2022/07/14 00:35:07;;;;;;;10.82;3.70;;;;;;;16.83;85.65;101963.47;5111513;28;20145;-59
2022/07/14 00:37:32;;;;;;;11.15;4.00;;;;;;;16.98;84.68;101976.38;5111482;28;20466;-58
2022/07/14 00:40:00;;;;;;;11.70;3.72;;;;;;;17.07;84.50;101963.84;5110971;28;20035;-58
2022/07/14 00:42:38;;;;;;;12.00;3.85;;;;;;;17.08;84.17;101962.97;5111449;28;20043;-58
2022/07/14 00:45:06;;;;;;;10.95;4.05;;;;;;;17.02;84.67;101966.59;5111237;28;20189;-59
2022/07/14 00:47:32;;;;;;;13.95;3.90;;;;;;;16.88;84.83;101963.38;5111581;28;20474;-58
2022/07/14 00:49:58;;;;;;;12.52;4.28;;;;;;;16.88;85.18;101972.19;5111574;28;20039;-58
2022/07/14 00:52:25;;;;;;;10.35;3.85;;;;;;;16.90;85.33;101959.81;5111236;28;20446;-58
2022/07/14 00:54:51;;;;;;;12.48;4.00;;;;;;;16.99;84.96;101964.00;5111166;28;20088;-58
2022/07/14 00:57:18;;;;;;;9.50;3.47;;;;;;;16.99;84.88;101964.00;5111219;28;20035;-58
2022/07/14 00:59:43;;;;;;;11.20;3.55;;;;;;;17.02;85.06;101975.41;5113484;28;20039;-59
2022/07/14 01:02:09;;;;;;;12.77;3.90;;;;;;;17.02;84.80;101967.47;5114883;28;20127;-59
2022/07/14 01:04:34;;;;;;;11.38;4.10;;;;;;;17.02;84.31;101956.00;5114962;28;20028;-59
2022/07/14 01:06:59;;;;;;;13.65;3.92;;;;;;;17.14;84.17;101973.41;5114805;28;20042;-58
2022/07/14 01:09:24;;;;;;;11.32;3.83;;;;;;;17.18;83.83;101977.69;5114768;28;20060;-59
2022/07/14 01:11:50;;;;;;;13.13;4.07;;;;;;;17.21;83.69;101985.56;5114753;28;20062;-58
2022/07/14 01:14:15;;;;;;;12.82;3.92;;;;;;;17.24;83.86;101982.88;5114470;28;20084;-59
2022/07/14 01:16:40;;;;;;;12.13;3.97;;;;;;;17.26;83.79;101981.06;5114667;28;20469;-59
2022/07/14 01:19:06;;;;;;;12.95;4.20;;;;;;;17.31;83.63;101979.19;5114757;28;20419;-59
2022/07/14 01:21:31;;;;;;;10.63;3.65;;;;;;;17.28;83.80;101985.41;5114494;28;20035;-59
2022/07/14 01:23:56;;;;;;;13.32;4.07;;;;;;;17.27;83.64;101993.38;5114442;28;20039;-58
2022/07/14 01:26:21;;;;;;;9.20;3.40;;;;;;;17.23;84.10;101989.06;5114436;28;20031;-59
2022/07/14 01:28:47;;;;;;;9.50;3.63;;;;;;;17.30;83.86;101995.97;5113983;28;20724;-59
2022/07/14 01:31:12;;;;;;;11.73;4.03;;;;;;;17.21;83.79;101991.72;5114317;28;20309;-58
2022/07/14 01:33:37;;;;;;;13.25;4.20;;;;;;;17.03;84.61;101995.66;5114245;28;20299;-58
2022/07/14 01:36:03;;;;;;;12.60;4.03;;;;;;;16.88;85.20;101984.53;5114275;28;20745;-58
2022/07/14 01:38:28;;;;;;;12.45;3.88;;;;;;;16.85;85.68;101988.13;5114078;28;20035;-58
2022/07/14 01:40:53;;;;;;;11.00;3.63;;;;;;;16.94;85.25;101990.59;5114075;28;20063;-60
2022/07/14 01:43:18;;;;;;;11.27;4.15;;;;;;;16.92;85.28;101992.38;5114113;28;20055;-59
2022/07/14 01:45:44;;;;;;;11.13;4.20;;;;;;;16.88;85.73;101988.06;5114036;28;20043;-58
2022/07/14 01:48:09;;;;;;;13.32;4.07;;;;;;;16.78;86.05;101988.28;5114048;28;20446;-58
2022/07/14 01:50:34;;;;;;;12.00;4.40;;;;;;;16.73;86.44;101984.88;5113958;28;20028;-59
2022/07/14 01:52:59;;;;;;;14.68;4.20;;;;;;;16.66;87.00;101989.41;5113647;28;20080;-59
2022/07/14 01:55:25;;;;;;;13.00;4.40;;;;;;;16.73;86.83;101985.75;5114145;28;20654;-59
2022/07/14 01:57:50;;;;;;;13.25;4.72;;;;;;;16.79;86.24;101982.97;5113849;28;20032;-58
2022/07/14 02:00:16;;;;;;;10.93;4.00;;;;;;;16.83;86.15;101979.34;5113833;28;20032;-59
2022/07/14 02:02:41;;;;;;;10.00;4.13;;;;;;;16.83;86.09;101978.47;5113346;28;20450;-58
2022/07/14 02:05:10;;;;;;;10.27;3.90;;;;;;;16.66;86.76;101978.81;5113808;28;20110;-58
2022/07/14 02:07:35;;;;;;;10.10;4.18;;;;;;;16.62;87.01;101971.84;5113592;28;20042;-58
2022/07/14 02:12:45;;;;;;;11.73;4.07;;;;;;;16.49;87.72;101978.25;5113773;28;20396;-58
2022/07/14 02:15:11;;;;;;;13.15;4.10;;;;;;;16.43;87.66;101981.03;5112993;28;20039;-58
2022/07/14 02:17:37;;;;;;;12.85;4.28;;;;;;;16.41;87.85;101978.44;5113558;28;20031;-58
2022/07/14 02:20:03;;;;;;;11.32;3.90;;;;;;;16.33;87.88;101978.56;5113334;28;20353;-58
2022/07/14 02:22:28;;;;;;;11.27;4.07;;;;;;;16.25;88.60;101969.06;5112973;28;20042;-58
2022/07/14 02:24:53;;;;;;;13.85;4.30;;;;;;;16.20;88.52;101982.34;5113039;28;20110;-58
2022/07/14 02:27:19;;;;;;;11.82;3.78;;;;;;;16.09;89.35;101986.09;5113272;28;20031;-58
2022/07/14 02:29:44;;;;;;;14.02;4.07;;;;;;;16.17;89.30;101982.38;5113193;28;20424;-58
2022/07/14 02:32:09;;;;;;;10.48;4.13;;;;;;;16.16;89.02;101980.66;5113252;28;20055;-58
2022/07/14 02:34:35;;;;;;;10.43;4.05;;;;;;;16.17;88.95;101976.22;5112859;28;20453;-58
2022/07/14 02:37:01;;;;;;;12.27;4.50;;;;;;;16.17;88.96;101963.91;5112778;28;20063;-60
2022/07/14 02:39:26;;;;;;;12.65;4.50;;;;;;;16.16;88.76;101967.44;5112965;28;20031;-57
2022/07/14 02:41:51;;;;;;;12.18;4.53;;;;;;;16.15;88.98;101964.81;5112849;28;20438;-58
2022/07/14 02:44:17;;;;;;;11.70;4.55;;;;;;;15.91;89.82;101963.53;5112926;28;20039;-58
2022/07/14 02:46:42;;;;;;;10.95;4.30;;;;;;;15.94;89.91;101958.16;5113006;28;20039;-58
2022/07/14 02:49:07;;;;;;;12.73;4.10;;;;;;;15.87;89.94;101951.25;5112751;28;20048;-57
2022/07/14 02:51:33;;;;;;;10.68;3.90;;;;;;;15.85;90.37;101947.78;5112707;28;20046;-58
2022/07/14 02:53:59;;;;;;;13.23;4.38;;;;;;;15.82;90.27;101946.06;5112440;28;20031;-58
2022/07/14 02:56:25;;;;;;;12.18;4.18;;;;;;;15.69;90.85;101949.81;5112551;28;20046;-59
2022/07/14 02:58:51;;;;;;;13.48;4.28;;;;;;;15.68;90.82;101952.47;5112481;28;20100;-58
2022/07/14 03:01:17;;;;;;;15.60;4.63;;;;;;;15.70;90.94;101942.75;5112708;28;20128;-58
2022/07/14 03:03:42;;;;;;;11.35;4.10;;;;;;;15.56;91.25;101949.16;5112234;28;20042;-58
2022/07/14 03:06:10;;;;;;;13.77;4.78;;;;;;;15.48;91.72;101956.28;5112534;28;20461;-58
2022/07/14 03:08:36;;;;;;;12.90;4.85;;;;;;;15.45;92.01;101951.03;5112502;28;20039;-58
2022/07/14 03:11:01;;;;;;;14.88;5.35;;;;;;;15.44;92.28;101949.28;5112391;28;20024;-59
2022/07/14 03:13:26;;;;;;;12.88;4.85;;;;;;;15.26;92.58;101941.66;5112457;28;20042;-58
2022/07/14 03:15:51;;;;;;;12.25;5.18;;;;;;;15.20;93.27;101945.28;5112519;28;20035;-59
2022/07/14 03:18:17;;;;;;;15.32;5.13;;;;;;;15.13;93.82;101932.19;5112361;28;20636;-58
2022/07/14 03:20:43;;;;;;;13.23;4.88;;;;;;;15.16;93.98;101929.53;5111976;28;20027;-58
2022/07/14 03:23:08;;;;;;;14.45;4.60;;;;;;;15.21;93.33;101927.69;5111538;28;20038;-58
2022/07/14 03:25:33;;;;;;;15.73;4.97;;;;;;;15.21;93.46;101927.69;5112004;28;20043;-58
2022/07/14 03:27:58;;;;;;;12.90;4.88;;;;;;;15.19;93.44;101922.44;5112207;28;20431;-58
2022/07/14 03:30:24;;;;;;;12.23;4.88;;;;;;;15.27;93.13;101924.94;5112022;28;20051;-58
2022/07/14 03:32:49;;;;;;;12.27;4.68;;;;;;;15.23;92.81;101918.00;5111983;28;20047;-58
2022/07/14 03:35:14;;;;;;;10.95;4.97;;;;;;;15.25;92.96;101916.19;5111840;28;20371;-59
2022/07/14 03:37:40;;;;;;;12.45;5.07;;;;;;;15.22;93.03;101924.16;5111821;28;20051;-59
2022/07/14 03:40:06;;;;;;;11.52;5.53;;;;;;;15.12;93.23;101925.19;5112041;28;20036;-59
2022/07/14 03:42:32;;;;;;;10.90;5.00;;;;;;;15.14;93.66;101923.41;5111974;28;20032;-58
2022/07/14 03:44:57;;;;;;;17.40;5.95;;;;;;;15.08;93.40;101923.47;5112055;28;20095;-59
2022/07/14 03:47:22;;;;;;;10.98;4.78;;;;;;;15.06;93.71;101926.16;5112037;28;20128;-57
2022/07/14 03:49:48;;;;;;;13.15;4.70;;;;;;;15.11;93.23;101928.72;5111655;28;20038;-57
2022/07/14 03:52:14;;;;;;;13.15;5.40;;;;;;;14.98;93.52;101928.03;5111947;28;20058;-58
2022/07/14 03:54:44;;;;;;;12.55;5.45;;;;;;;15.01;93.75;101945.56;5111755;28;20031;-58
2022/07/14 03:57:10;;;;;;;10.43;5.00;;;;;;;15.14;93.19;101948.00;5112034;28;20099;-58
2022/07/14 03:59:40;;;;;;;11.82;5.03;;;;;;;15.10;93.08;101953.34;5111786;28;20519;-58
2022/07/14 04:02:12;;;;;;;13.68;4.90;;;;;;;15.03;93.71;101955.19;5111586;28;20473;-58
2022/07/14 04:04:38;;;;;;;15.93;5.60;;;;;;;15.10;93.58;101953.34;5094670;28;20032;-58
2022/07/14 04:07:04;;;;;;;17.45;5.70;;;;;;;15.18;92.99;101960.25;5111708;28;20066;-58
2022/07/14 04:09:29;;;;;;;15.48;5.50;;;;;;;15.21;92.67;101957.56;5111639;28;20430;-59
2022/07/14 04:11:56;;;;;;;15.40;4.90;;;;;;;15.18;92.77;101954.97;5111790;28;20039;-59
2022/07/14 04:14:21;;;;;;;13.23;5.53;;;;;;;15.25;92.80;101953.97;5111905;28;20032;-59
2022/07/14 04:16:47;;;;;;;16.95;6.00;;;;;;;15.29;92.30;101955.69;5111620;28;20042;-58
2022/07/14 04:19:13;;;;;;;14.95;5.65;;;;;;;15.24;92.51;101956.63;5111447;28;20056;-59
2022/07/14 04:21:38;;;;;;;15.85;5.72;;;;;;;15.19;93.12;101959.38;5111720;28;20069;-58
2022/07/14 04:24:04;;;;;;;13.03;5.43;;;;;;;15.21;92.92;101951.44;5111639;28;20039;-59
2022/07/14 04:26:29;;;;;;;16.85;6.15;;;;;;;15.26;92.45;101950.44;5093498;28;20314;-59
2022/07/14 04:28:55;;;;;;;13.48;6.03;;;;;;;15.36;92.29;101950.31;5111470;28;20036;-59
2022/07/14 04:31:21;;;;;;;13.07;5.18;;;;;;;15.32;92.24;101941.59;5111609;28;20036;-58
2022/07/14 04:33:46;;;;;;;16.50;5.75;;;;;;;15.36;92.28;101951.19;5113550;28;20046;-59
2022/07/14 04:36:12;;;;;;;13.82;5.60;;;;;;;15.42;92.02;101951.06;5115159;28;20445;-58
2022/07/14 04:38:37;;;;;;;12.02;6.13;;;;;;;15.45;91.48;101955.44;5115299;28;20034;-58
2022/07/14 04:41:03;;;;;;;17.42;5.78;;;;;;;15.29;92.17;101949.53;5115363;28;20330;-58
2022/07/14 04:43:28;;;;;;;14.27;5.70;;;;;;;15.34;92.74;101945.06;5115197;28;20458;-58
2022/07/14 04:45:54;;;;;;;17.67;6.15;;;;;;;15.38;92.24;101944.13;5115221;28;20465;-58
2022/07/14 04:48:19;;;;;;;14.30;5.57;;;;;;;15.43;91.70;101936.13;5114817;28;20032;-58
2022/07/14 04:53:28;;;;;;;14.70;6.20;;;;;;;15.50;91.48;101927.22;5115237;28;20160;-59
2022/07/14 04:55:54;;;;;;;13.85;5.97;;;;;;;15.42;92.03;101931.75;5115327;28;20032;-58
2022/07/14 04:58:20;;;;;;;15.05;6.50;;;;;;;15.37;92.48;101942.38;5114582;28;20028;-59
2022/07/14 05:00:47;;;;;;;13.52;6.20;;;;;;;15.35;92.72;101943.31;5114723;28;20035;-59
2022/07/14 05:03:12;;;;;;;17.13;6.40;;;;;;;15.28;93.21;101938.13;5114999;28;20027;-58
2022/07/14 05:05:37;;;;;;;17.40;6.45;;;;;;;15.36;93.08;101951.19;5114946;28;20042;-58
2022/07/14 05:08:03;;;;;;;18.58;6.82;;;;;;;15.39;93.13;101961.72;5114724;28;20061;-58
2022/07/14 05:10:28;;;;;;;19.33;6.85;;;;;;;15.35;93.07;101965.28;5114765;28;20346;-58
2022/07/14 05:12:53;;;;;;;17.25;6.88;;;;;;;15.37;92.72;101966.13;5114781;28;20515;-60
2022/07/14 05:15:20;;;;;;;17.48;6.43;;;;;;;15.43;92.55;101962.50;5114735;28;20039;-59
2022/07/14 05:17:45;;;;;;;16.33;6.88;;;;;;;15.37;92.67;101970.53;5114755;28;20035;-58
2022/07/14 05:20:11;;;;;;;17.65;6.90;;;;;;;15.43;92.74;101963.38;5114678;28;20100;-58
2022/07/14 05:22:37;;;;;;;16.75;6.45;;;;;;;15.45;92.58;101955.44;5114420;28;20047;-59
2022/07/14 05:25:07;;;;;;;18.77;7.32;;;;;;;15.44;92.66;101953.69;5114530;28;20084;-62
2022/07/14 05:27:32;;;;;;;18.42;6.45;;;;;;;15.45;92.26;101953.69;5114389;28;20387;-59
2022/07/14 05:29:57;;;;;;;20.15;6.57;;;;;;;15.45;92.47;101950.16;5114121;28;20138;-58
2022/07/14 05:32:23;;;;;;;16.42;6.78;;;;;;;15.47;92.72;101948.38;5114291;28;20047;-59
2022/07/14 05:34:49;;;;;;;19.15;7.30;;;;;;;15.42;92.90;101953.72;5114083;28;20039;-58
2022/07/14 05:37:14;;;;;;;18.67;6.85;;;;;;;15.43;93.33;101951.94;5114183;28;20074;-58
2022/07/14 05:39:40;;;;;;;13.68;6.88;;;;;;;15.43;92.80;101947.53;5114198;28;20066;-57
2022/07/14 05:42:05;;;;;;;16.63;6.55;;;;;;;15.43;92.05;101947.53;5113911;28;20036;-57
2022/07/14 05:44:30;;;;;;;18.27;7.10;;;;;;;15.44;91.88;101932.59;5113272;28;20053;-57
2022/07/14 05:46:55;;;;;;;14.82;6.75;;;;;;;15.59;92.09;101953.47;5113962;28;20052;-57
2022/07/14 05:49:21;;;;;;;17.55;6.57;;;;;;;15.66;91.41;101953.38;5113788;28;20341;-57
2022/07/14 05:51:46;;;;;;;18.50;6.40;;;;;;;15.69;91.29;101948.94;5113998;28;20081;-57
2022/07/14 05:54:12;;;;;;;19.63;6.28;;;;;;;15.70;91.57;101959.47;5113912;28;20428;-57
2022/07/14 05:56:38;;;;;;;18.17;6.80;;;;;;;15.74;90.87;101952.38;5113692;28;20434;-58
2022/07/14 05:59:03;;;;;;;18.25;6.13;;;;;;;15.90;90.40;101943.28;5113579;28;20115;-58
2022/07/14 06:01:28;;;;;;;15.00;6.18;;;;;;;16.00;89.80;101944.84;5113521;28;20127;-63
2022/07/14 06:03:56;;;;;;;16.00;6.28;;;;;;;16.05;89.85;101948.28;5113398;28;20104;-58
2022/07/14 06:06:22;;;;;;;19.13;6.07;;;;;;;16.08;88.86;101935.03;5113675;28;20088;-58
2022/07/14 06:08:48;;;;;;;16.85;5.90;;;;;;;16.18;88.60;101943.66;5113609;28;20054;-58
2022/07/14 06:11:13;;;;;;;16.10;5.80;;;;;;;16.17;87.50;101937.50;5113714;28;20039;-58
2022/07/14 06:13:40;;;;;;;20.10;5.57;;;;;;;16.70;86.97;101951.44;5113414;28;20140;-58
2022/07/14 06:16:06;;;;;;;20.60;5.72;;;;;;;17.14;83.18;101949.59;5113351;28;20039;-57
2022/07/14 06:18:31;;;;;;;12.85;4.90;;;;;;;17.01;83.27;101956.91;5113349;28;20062;-57
2022/07/14 06:20:57;;;;;;;13.20;5.57;;;;;;;16.82;84.41;101953.81;5113551;28;20032;-59
2022/07/14 06:23:22;;;;;;;17.02;5.13;;;;;;;16.72;84.86;101952.28;5113302;28;20061;-58
2022/07/14 06:25:48;;;;;;;19.08;5.85;;;;;;;16.68;85.32;101945.31;5113197;28;20802;-59
2022/07/14 06:28:13;;;;;;;19.20;4.90;;;;;;;16.77;84.89;101942.47;5112958;28;20506;-59
2022/07/14 06:30:38;;;;;;;16.25;4.97;;;;;;;16.82;84.18;101940.59;5112685;28;20058;-59
2022/07/14 06:33:03;;;;;;;16.27;5.15;;;;;;;16.94;84.22;101943.00;5112776;28;20084;-58
2022/07/14 06:35:29;;;;;;;16.23;5.10;;;;;;;16.95;83.71;101939.44;5112949;28;20027;-58
2022/07/14 06:37:55;;;;;;;17.20;5.00;;;;;;;16.88;82.52;101951.03;5112933;28;20400;-59
2022/07/14 06:40:21;;;;;;;15.05;3.95;;;;;;;16.90;82.21;101951.00;5112879;28;20100;-58
2022/07/14 06:42:47;;;;;;;18.02;4.55;;;;;;;16.97;82.13;101950.81;5112984;28;20046;-58
2022/07/14 06:45:13;;;;;;;13.35;4.38;;;;;;;17.03;82.45;101953.34;5112763;28;20036;-59
2022/07/14 06:47:38;;;;;;;16.92;4.60;;;;;;;17.06;81.84;101955.06;5112768;28;20366;-60
2022/07/14 06:50:05;;;;;;;13.15;4.93;;;;;;;16.99;81.89;101962.25;5112740;28;20050;-59
2022/07/14 06:52:31;;;;;;;16.65;5.25;;;;;;;16.92;82.31;101957.13;5112816;28;20027;-59
2022/07/14 06:55:00;;;;;;;16.88;5.25;;;;;;;16.98;82.26;101957.84;5112530;28;20047;-59
2022/07/14 06:57:26;;;;;;;17.23;5.40;;;;;;;17.02;81.20;101951.59;5092188;28;20050;-60
2022/07/14 06:59:51;;;;;;;12.95;5.78;;;;;;;17.04;81.15;101949.78;5092101;28;20031;-59
2022/07/14 07:02:18;;;;;;;13.27;6.00;;;;;;;17.08;81.18;101944.44;5102505;27;20489;-60
2022/07/14 07:04:44;;;;;;;15.43;6.20;;;;;;;17.12;81.42;101946.13;5112525;27;20055;-59
2022/07/14 07:07:09;;;;;;;13.10;5.97;;;;;;;17.16;80.69;101939.84;5112555;28;20073;-60
2022/07/14 07:09:35;;;;;;;18.30;6.40;;;;;;;17.22;80.39;101937.94;5112088;28;20023;-60
2022/07/14 07:12:01;;;;;;;16.45;6.25;;;;;;;17.17;78.86;101945.09;5111976;28;20114;-61
2022/07/14 07:14:27;;;;;;;16.33;6.03;;;;;;;17.21;79.90;101954.69;5111951;28;20114;-59
2022/07/14 07:16:52;;;;;;;14.45;5.22;;;;;;;17.26;79.15;101950.19;5112097;28;20031;-59
2022/07/14 07:19:17;;;;;;;14.32;5.72;;;;;;;17.33;79.32;101951.75;5112204;28;20039;-60
2022/07/14 07:21:43;;;;;;;15.05;5.68;;;;;;;17.36;77.62;101941.09;5112061;28;20078;-59
2022/07/14 07:24:11;;;;;;;17.63;5.63;;;;;;;17.31;78.92;101944.78;5112351;28;20028;-59
2022/07/14 07:26:38;;;;;;;13.52;4.85;;;;;;;17.33;78.58;101948.25;5111785;28;20040;-59
2022/07/14 07:29:04;;;;;;;14.70;5.68;;;;;;;17.42;78.28;101942.75;5111713;28;20039;-59
2022/07/14 07:31:30;;;;;;;14.52;5.30;;;;;;;17.52;77.76;101932.78;5111954;28;20092;-57
2022/07/14 07:33:55;;;;;;;16.23;5.43;;;;;;;17.66;77.21;101933.38;5111615;28;20031;-57
2022/07/14 07:36:21;;;;;;;16.88;4.97;;;;;;;17.85;76.34;101934.59;5111542;28;20035;-57
2022/07/14 07:38:46;;;;;;;16.73;4.78;;;;;;;17.89;75.35;101930.97;5112185;28;20028;-57
2022/07/14 07:41:11;;;;;;;13.00;4.68;;;;;;;17.83;75.05;101931.16;5111930;28;20088;-55
2022/07/14 07:43:37;;;;;;;13.13;4.25;;;;;;;17.83;75.07;101917.06;5111648;28;20423;-55
2022/07/14 07:46:03;;;;;;;17.58;4.88;;;;;;;17.90;75.51;101915.97;5112027;28;20062;-53
2022/07/14 07:48:32;;;;;;;12.68;4.45;;;;;;;17.88;74.38;101910.69;5111836;28;20051;-56
2022/07/14 07:50:57;;;;;;;13.23;4.55;;;;;;;17.92;75.65;101911.50;5111786;28;20117;-56
2022/07/14 07:53:22;;;;;;;14.90;4.65;;;;;;;18.03;75.54;101912.94;5111666;28;20755;-56
2022/07/14 07:55:48;;;;;;;15.43;4.65;;;;;;;18.11;74.85;101925.13;5111796;28;20031;-50
2022/07/14 07:58:13;;;;;;;10.10;3.92;;;;;;;18.15;72.93;101922.34;5111657;28;20439;-57
2022/07/14 08:00:39;;;;;;;11.93;4.20;;;;;;;18.13;72.97;101908.28;5111741;28;20028;-57
2022/07/14 08:03:05;;;;;;;12.73;4.45;;;;;;;18.22;71.97;101910.66;5111663;28;20136;-57
2022/07/14 08:05:31;;;;;;;13.32;4.38;;;;;;;18.20;72.94;101903.66;5111759;28;20067;-57
2022/07/14 08:07:56;;;;;;;13.73;4.40;;;;;;;18.25;71.67;101905.28;5112662;28;20039;-57
2022/07/14 08:10:22;;;;;;;10.00;4.20;;;;;;;18.28;72.81;101894.59;5097498;28;20042;-57
2022/07/14 08:12:48;;;;;;;12.52;4.00;;;;;;;18.50;72.09;101896.63;5115693;28;20043;-58
2022/07/14 08:15:14;;;;;;;10.52;3.75;;;;;;;18.57;69.80;101899.03;5115501;28;20035;-57
2022/07/14 08:17:40;;;;;;;13.45;3.70;;;;;;;18.63;68.99;101880.34;5115647;28;20034;-58
2022/07/14 08:20:08;;;;;;;10.27;3.58;;;;;;;18.66;69.34;101892.63;5115689;28;20047;-57
2022/07/14 08:22:34;;;;;;;11.55;3.63;;;;;;;18.65;70.08;101885.59;5115736;28;20770;-57
2022/07/14 08:24:59;;;;;;;13.15;3.78;;;;;;;18.66;68.72;101877.59;5115634;28;20122;-57
2022/07/14 08:27:26;;;;;;;10.55;3.05;;;;;;;18.68;67.58;101880.19;5115385;28;20123;-57
2022/07/14 08:29:52;;;;;;;9.20;2.80;;;;;;;18.71;68.13;101880.09;5115017;28;20059;-57
2022/07/14 08:32:35;;;;;;;8.57;3.15;;;;;;;18.78;66.90;101889.59;5115419;28;20058;-59
2022/07/14 08:35:02;;;;;;;11.23;3.05;;;;;;;18.82;64.87;101888.59;5115382;28;20027;-55
2022/07/14 08:37:29;;;;;;;8.57;3.22;;;;;;;18.91;65.39;101885.63;5115399;28;20027;-54
2022/07/14 08:39:55;;;;;;;9.25;3.15;;;;;;;19.10;65.29;101878.84;5096557;27;20438;-56
2022/07/14 08:42:21;;;;;;;7.85;2.90;;;;;;;19.35;64.69;101875.38;5114993;28;20035;-56
2022/07/14 08:44:47;;;;;;;11.07;3.25;;;;;;;19.50;63.80;101877.56;5114920;28;20732;-56
2022/07/14 08:47:12;;;;;;;11.23;3.38;;;;;;;19.70;63.53;101880.41;5114795;28;20036;-55
2022/07/14 08:49:38;;;;;;;10.30;3.13;;;;;;;19.85;62.51;101881.66;5115339;28;20164;-55
2022/07/14 08:52:04;;;;;;;8.48;2.95;;;;;;;20.08;63.49;101886.16;5114728;28;20112;-56
2022/07/14 08:54:29;;;;;;;11.93;3.97;;;;;;;20.25;61.35;101881.09;5114850;28;20841;-56
2022/07/14 08:56:55;;;;;;;11.23;4.00;;;;;;;20.20;60.53;101879.50;5114687;28;20027;-56
2022/07/14 08:59:20;;;;;;;10.23;3.13;;;;;;;20.30;59.26;101880.88;5114834;28;20035;-56
2022/07/14 09:01:49;;;;;;;10.90;3.08;;;;;;;20.32;59.55;101876.38;5114937;28;20287;-56
2022/07/14 09:04:14;;;;;;;7.82;3.40;;;;;;;20.47;59.46;101882.03;5114654;28;20032;-56
2022/07/14 09:06:48;;;;;;;8.48;2.78;;;;;;;20.71;59.55;101882.00;5114404;28;20047;-56
2022/07/14 09:09:17;;;;;;;9.25;2.97;;;;;;;20.84;57.73;101873.47;5114938;28;20027;-56
2022/07/14 09:12:12;;;;;;;7.63;2.80;;;;;;;21.26;58.63;101864.72;5114533;28;20139;-57
2022/07/14 09:17:48;;;;;;;7.93;2.88;;;;;;;22.96;53.66;101866.84;5114543;28;20765;-56
2022/07/14 09:20:14;;;;;;;11.10;3.33;;;;;;;23.62;48.64;101868.91;5113378;28;20078;-56
2022/07/14 09:22:42;;;;;;;7.70;3.20;;;;;;;24.54;46.90;101858.59;5114572;28;20058;-56
2022/07/14 09:25:10;;;;;;;8.77;2.60;;;;;;;25.28;43.69;101857.94;5114522;28;20285;-55
2022/07/14 09:27:35;;;;;;;9.00;2.83;;;;;;;25.57;42.36;101866.94;5113961;28;20042;-56
2022/07/14 09:30:02;;;;;;;7.65;2.70;;;;;;;26.19;40.97;101863.09;5114112;28;20060;-56
2022/07/14 09:32:56;;;;;;;8.10;2.15;;;;;;;26.28;43.04;101854.47;5114187;28;20035;-56
2022/07/14 09:35:34;;;;;;;5.40;2.30;;;;;;;26.14;42.23;101859.00;5114151;28;20042;-55
2022/07/14 09:38:14;;;;;;;7.18;2.20;;;;;;;26.17;39.70;101861.47;5113958;28;20066;-56
2022/07/14 09:40:39;;;;;;;8.77;3.20;;;;;;;25.64;41.24;101855.75;5113982;28;20396;-56
2022/07/14 09:43:08;;;;;;;6.90;2.20;;;;;;;25.07;42.27;101862.75;5114081;28;20035;-56
2022/07/14 09:45:39;;;;;;;5.22;2.30;;;;;;;24.22;43.90;101867.47;5114094;28;20512;-57
2022/07/14 09:48:07;;;;;;;4.72;2.03;;;;;;;24.05;44.18;101851.47;5114142;28;20035;-56
2022/07/14 09:50:50;;;;;;;7.80;2.30;;;;;;;23.61;44.24;101857.34;5113918;28;20027;-56
2022/07/14 09:53:31;;;;;;;5.03;2.05;;;;;;;23.35;44.72;101863.13;5113760;28;20036;-56
2022/07/14 09:56:06;;;;;;;6.65;1.83;;;;;;;23.34;45.15;101864.94;5113645;28;20035;-56
2022/07/14 09:58:40;;;;;;;6.95;2.38;;;;;;;23.17;45.90;101862.25;5113670;28;20108;-56
2022/07/14 10:01:07;;;;;;;8.80;2.30;;;;;;;23.08;45.57;101870.69;5113747;28;20031;-56
2022/07/14 10:03:35;;;;;;;7.72;2.28;;;;;;;23.07;44.15;101861.81;5113596;28;20085;-56
2022/07/14 10:06:02;;;;;;;4.25;1.90;;;;;;;23.31;44.00;101864.22;5113233;28;20462;-56
2022/07/14 10:08:30;;;;;;;3.90;1.80;;;;;;;23.48;43.02;101857.09;5113758;28;20050;-57
2022/07/14 10:10:58;;;;;;;6.05;2.15;;;;;;;23.61;43.63;101860.00;5113470;28;20049;-57
2022/07/14 10:13:24;;;;;;;6.82;2.30;;;;;;;23.50;42.70;101857.00;5113203;28;20100;-57
2022/07/14 10:15:52;;;;;;;6.80;2.30;;;;;;;23.54;43.61;101861.28;5113129;28;20525;-56
2022/07/14 10:18:18;;;;;;;6.22;2.10;;;;;;;23.55;44.46;101868.38;5113186;28;20551;-57
2022/07/14 10:20:49;;;;;;;4.97;2.50;;;;;;;23.38;44.92;101861.16;5113479;28;20036;-55
2022/07/14 10:23:14;;;;;;;5.13;2.20;;;;;;;23.72;44.76;101868.34;5113329;28;20110;-56
2022/07/14 10:25:41;;;;;;;5.28;2.00;;;;;;;23.76;43.91;101869.91;5113042;28;20123;-54
2022/07/14 10:28:07;;;;;;;6.07;1.63;;;;;;;23.80;43.04;101871.47;5113136;28;20039;-55
2022/07/14 10:30:46;;;;;;;4.20;1.58;;;;;;;23.71;41.56;101871.09;5112831;28;20185;-55
2022/07/14 10:33:22;;;;;;;4.63;1.42;;;;;;;23.75;43.42;101872.66;5112968;28;20035;-58
2022/07/14 10:36:13;;;;;;;4.72;1.20;;;;;;;23.77;42.79;101878.78;5112797;28;20062;-58
2022/07/14 10:38:48;;;;;;;6.47;1.42;;;;;;;23.72;42.17;101879.06;5113049;28;20461;-59
2022/07/14 10:41:40;;;;;;;3.78;1.30;;;;;;;23.78;42.78;101876.03;5112857;28;20036;-60
2022/07/14 10:44:32;;;;;;;6.65;1.60;;;;;;;24.00;43.10;101878.47;5067066;28;20462;-60
2022/07/14 10:47:11;;;;;;;5.93;1.73;;;;;;;24.31;42.18;101877.69;5108252;28;20131;-58
2022/07/14 10:50:08;;;;;;;4.45;1.50;;;;;;;24.33;42.08;101873.13;5112737;28;20035;-60
2022/07/14 10:52:58;;;;;;;4.38;1.60;;;;;;;24.27;40.59;101873.47;5112246;28;20074;-59
2022/07/14 10:55:29;;;;;;;4.00;1.40;;;;;;;24.49;40.17;101878.50;5097929;28;20047;-58
2022/07/14 10:58:04;;;;;;;5.85;1.40;;;;;;;24.49;39.91;101857.97;5112663;28;20065;-59
2022/07/14 11:00:42;;;;;;;4.80;1.40;;;;;;;24.62;41.52;101869.69;5112676;28;20324;-59
2022/07/14 11:03:29;;;;;;;5.45;1.50;;;;;;;24.55;41.75;101868.34;5112632;28;20040;-59
2022/07/14 11:06:09;;;;;;;6.20;1.65;;;;;;;24.44;40.37;101872.53;5112089;28;20035;-58
2022/07/14 11:08:37;;;;;;;5.20;1.40;;;;;;;24.14;39.84;101877.72;5112424;28;20047;-59
2022/07/14 11:11:16;;;;;;;4.55;1.48;;;;;;;23.80;42.13;101882.16;5112524;28;20157;-60
2022/07/14 11:14:00;;;;;;;4.75;1.45;;;;;;;23.92;41.79;101873.50;5112402;28;20084;-59
2022/07/14 11:16:55;;;;;;;8.73;1.60;;;;;;;23.84;42.26;101873.06;5112346;28;20046;-61
2022/07/14 11:19:22;;;;;;;5.38;1.55;;;;;;;23.80;41.15;101870.63;5112434;28;20081;-59
2022/07/14 11:22:26;;;;;;;4.32;1.50;;;;;;;23.89;42.23;101880.84;5112352;28;20118;-58
2022/07/14 11:24:56;;;;;;;5.80;1.42;;;;;;;23.90;42.64;101878.06;5009622;28;20108;-60
2022/07/14 11:27:33;;;;;;;6.57;2.00;;;;;;;23.94;42.88;101874.28;5009538;28;20042;-59
2022/07/14 11:30:17;;;;;;;6.93;1.70;;;;;;;24.01;42.66;101865.94;5067687;28;20525;-60